Time;durP1;ratioP1;P1;durP2;ratioP2;P2;SDS_P1;SDS_P2;PMS_P1;PMS_P2;Temp;Humidity;BMP_temperature;BMP_pressure;BME280_temperature;BME280_humidity;BME280_pressure;Samples;Min_cycle;Max_cycle;Signal;HPM_P1;HPM_P2
2021/04/04 00:01:21;;;;;;;6.63;2.20;;;7.90;59.10;;;;;;5051934;28;20530;-76
2021/04/04 00:03:47;;;;;;;6.53;2.10;;;7.90;59.20;;;;;;5051404;28;20189;-77
2021/04/04 00:06:13;;;;;;;17.65;3.45;;;7.90;59.40;;;;;;5051487;28;20200;-76
2021/04/04 00:08:39;;;;;;;8.77;2.63;;;7.90;59.60;;;;;;5051258;28;20181;-77
2021/04/04 00:11:05;;;;;;;7.47;2.90;;;7.80;59.60;;;;;;5052825;28;20230;-77
2021/04/04 00:13:32;;;;;;;10.63;2.80;;;7.80;59.80;;;;;;5051622;28;20595;-77
2021/04/04 00:15:57;;;;;;;9.15;2.67;;;7.80;59.90;;;;;;5052891;28;20196;-77
2021/04/04 00:18:23;;;;;;;7.57;2.27;;;7.80;60.10;;;;;;5052740;28;20215;-77
2021/04/04 00:20:49;;;;;;;12.87;3.00;;;7.80;60.30;;;;;;5057043;28;20252;-77
2021/04/04 00:23:15;;;;;;;5.73;2.40;;;7.70;60.50;;;;;;5052547;28;20583;-77
2021/04/04 00:25:40;;;;;;;8.33;2.50;;;7.70;60.60;;;;;;5051298;28;20234;-76
2021/04/04 00:28:06;;;;;;;11.10;3.00;;;7.70;60.70;;;;;;5051008;28;20582;-76
2021/04/04 00:30:32;;;;;;;9.18;3.45;;;7.60;61.00;;;;;;5051314;28;20672;-76
2021/04/04 00:32:58;;;;;;;10.40;5.47;;;7.60;61.60;;;;;;5052383;28;20208;-76
2021/04/04 00:35:24;;;;;;;6.10;2.90;;;7.60;61.60;;;;;;5034411;28;20769;-75
2021/04/04 00:37:51;;;;;;;7.47;3.15;;;7.60;61.60;;;;;;5050633;28;20573;-75
2021/04/04 00:40:27;;;;;;;8.90;2.65;;;7.50;61.90;;;;;;5050980;28;20604;-76
2021/04/04 00:42:53;;;;;;;9.02;3.20;;;7.50;62.50;;;;;;5052605;28;20248;-76
2021/04/04 00:45:21;;;;;;;13.33;4.13;;;7.50;62.20;;;;;;5051056;28;20295;-76
2021/04/04 00:47:47;;;;;;;7.75;3.25;;;7.50;63.50;;;;;;5050798;28;21094;-77
2021/04/04 00:50:16;;;;;;;8.10;3.72;;;7.50;62.80;;;;;;5050998;28;20511;-77
2021/04/04 00:52:44;;;;;;;8.80;2.88;;;7.40;63.00;;;;;;5034274;28;20260;-77
2021/04/04 00:55:11;;;;;;;10.40;3.45;;;7.40;63.70;;;;;;5052160;28;20284;-77
2021/04/04 00:57:37;;;;;;;7.65;3.45;;;7.40;63.80;;;;;;5054134;28;20628;-77
2021/04/04 01:00:08;;;;;;;11.10;3.05;;;7.40;64.30;;;;;;5050651;28;20177;-77
2021/04/04 01:02:36;;;;;;;13.27;3.60;;;7.50;64.90;;;;;;5034041;28;20714;-77
2021/04/04 01:05:04;;;;;;;16.60;3.20;;;7.50;65.00;;;;;;5051590;28;20610;-77
2021/04/04 01:07:32;;;;;;;11.05;4.18;;;7.60;66.10;;;;;;5051506;28;20548;-77
2021/04/04 01:09:59;;;;;;;11.82;3.47;;;7.60;65.50;;;;;;5051806;28;20633;-77
2021/04/04 01:12:39;;;;;;;10.03;2.60;;;7.70;65.90;;;;;;5050606;28;20173;-77
2021/04/04 01:15:17;;;;;;;7.22;2.80;;;7.70;67.20;;;;;;5051479;28;20716;-76
2021/04/04 01:17:46;;;;;;;7.47;2.95;;;7.80;66.90;;;;;;5050155;28;20656;-76
2021/04/04 01:20:18;;;;;;;6.40;3.40;;;7.80;66.60;;;;;;5050439;28;20568;-76
2021/04/04 01:22:58;;;;;;;7.25;2.72;;;7.90;67.10;;;;;;5051586;28;20244;-76
2021/04/04 01:25:45;;;;;;;8.73;2.45;;;7.90;67.40;;;;;;5041743;28;20228;-76
2021/04/04 01:28:25;;;;;;;8.52;2.75;;;8.00;67.90;;;;;;5033420;28;20173;-76
2021/04/04 01:30:54;;;;;;;8.93;2.80;;;8.00;67.60;;;;;;5049192;28;20177;-76
2021/04/04 01:33:21;;;;;;;12.18;4.00;;;8.10;67.20;;;;;;5057021;28;20193;-76
2021/04/04 01:35:54;;;;;;;5.32;2.95;;;8.10;67.30;;;;;;5051732;28;20165;-76
2021/04/04 01:38:25;;;;;;;9.48;2.80;;;8.10;67.40;;;;;;5032189;28;20184;-77
2021/04/04 01:40:58;;;;;;;9.30;3.22;;;8.20;67.60;;;;;;5051482;28;20176;-77
2021/04/04 01:43:25;;;;;;;13.23;3.40;;;8.20;68.20;;;;;;5049440;28;20201;-74
2021/04/04 01:45:53;;;;;;;12.27;3.63;;;8.20;67.90;;;;;;5051089;28;20193;-76
2021/04/04 01:48:19;;;;;;;9.43;3.03;;;8.20;68.40;;;;;;5049498;28;20184;-76
2021/04/04 01:50:46;;;;;;;7.40;2.72;;;8.20;68.50;;;;;;5050547;28;20188;-76
2021/04/04 01:53:16;;;;;;;5.38;2.50;;;8.30;69.00;;;;;;5050907;28;20161;-76
2021/04/04 01:55:44;;;;;;;8.05;3.42;;;8.30;69.10;;;;;;5050117;28;20187;-76
2021/04/04 01:58:11;;;;;;;12.82;3.35;;;8.30;69.00;;;;;;5050578;28;20538;-76
2021/04/04 02:00:38;;;;;;;10.13;2.88;;;8.30;69.30;;;;;;5051010;28;20165;-76
2021/04/04 02:03:05;;;;;;;11.02;3.22;;;8.30;69.10;;;;;;5050836;28;20559;-76
2021/04/04 02:05:31;;;;;;;8.02;3.35;;;8.40;69.20;;;;;;5049515;28;20197;-76
2021/04/04 02:07:59;;;;;;;17.15;4.03;;;8.30;69.30;;;;;;5049134;28;20169;-76
2021/04/04 02:10:29;;;;;;;12.30;4.15;;;8.30;69.40;;;;;;5052582;28;20180;-77
2021/04/04 02:12:58;;;;;;;9.63;3.92;;;8.30;70.70;;;;;;5051984;28;20177;-77
2021/04/04 02:15:29;;;;;;;10.77;3.42;;;8.40;69.90;;;;;;5050738;28;20263;-77
2021/04/04 02:17:56;;;;;;;5.95;2.88;;;8.30;70.00;;;;;;5049609;28;20179;-77
2021/04/04 02:20:25;;;;;;;10.57;3.55;;;8.40;70.00;;;;;;5049510;28;20171;-77
2021/04/04 02:22:52;;;;;;;8.07;3.08;;;8.40;70.10;;;;;;5049908;28;20539;-77
2021/04/04 02:25:18;;;;;;;10.65;3.90;;;8.40;69.90;;;;;;5033104;28;20850;-77
2021/04/04 02:27:46;;;;;;;6.13;2.53;;;8.40;69.90;;;;;;5049659;28;20252;-76
2021/04/04 02:30:14;;;;;;;7.70;2.92;;;8.40;70.80;;;;;;5049628;28;20571;-76
2021/04/04 02:33:05;;;;;;;6.82;3.20;;;8.40;70.10;;;;;;5049786;28;20177;-77
2021/04/04 02:35:34;;;;;;;8.35;4.18;;;8.40;70.20;;;;;;5049802;28;20177;-76
2021/04/04 02:38:06;;;;;;;7.88;3.22;;;8.40;70.10;;;;;;5049152;28;20181;-76
2021/04/04 02:40:34;;;;;;;9.73;3.13;;;8.40;70.30;;;;;;5049864;28;20202;-77
2021/04/04 02:43:01;;;;;;;6.50;2.50;;;8.40;70.60;;;;;;5033113;28;20551;-76
2021/04/04 02:45:28;;;;;;;9.70;3.47;;;8.40;70.60;;;;;;5049718;28;20207;-76
2021/04/04 02:48:00;;;;;;;6.95;3.05;;;8.40;70.70;;;;;;5055731;28;20169;-76
2021/04/04 02:50:27;;;;;;;8.18;2.67;;;8.40;70.60;;;;;;5051760;28;20252;-76
2021/04/04 02:52:57;;;;;;;7.03;2.80;;;8.30;70.40;;;;;;5054552;28;20177;-76
2021/04/04 02:55:24;;;;;;;6.63;2.70;;;8.40;70.60;;;;;;5052984;28;20220;-76
2021/04/04 02:57:53;;;;;;;5.60;2.78;;;8.40;70.60;;;;;;5053960;28;20180;-76
2021/04/04 03:00:20;;;;;;;9.07;2.88;;;8.40;70.90;;;;;;5054276;28;20602;-77
2021/04/04 03:02:46;;;;;;;7.32;3.53;;;8.30;70.70;;;;;;5064321;28;20175;-77
2021/04/04 03:05:13;;;;;;;9.27;3.42;;;8.30;70.80;;;;;;5063989;28;20266;-76
2021/04/04 03:07:44;;;;;;;9.02;3.72;;;8.30;71.00;;;;;;5062822;28;20183;-75
2021/04/04 03:10:12;;;;;;;8.02;2.83;;;8.30;71.10;;;;;;5054777;28;20629;-76
2021/04/04 03:12:39;;;;;;;7.53;2.55;;;8.30;71.20;;;;;;5054452;28;20165;-76
2021/04/04 03:15:10;;;;;;;11.98;3.05;;;8.30;71.30;;;;;;5052855;28;20684;-76
2021/04/04 03:17:42;;;;;;;10.00;3.38;;;8.20;71.40;;;;;;5054018;28;20165;-75
2021/04/04 03:20:10;;;;;;;12.52;3.33;;;8.20;72.30;;;;;;5052654;28;20169;-76
2021/04/04 03:22:43;;;;;;;8.65;3.40;;;8.20;71.90;;;;;;5052852;28;20165;-76
2021/04/04 03:25:10;;;;;;;7.15;3.63;;;8.20;72.10;;;;;;5057675;28;20619;-75
2021/04/04 03:27:39;;;;;;;8.15;3.70;;;8.20;72.30;;;;;;5052304;28;20196;-77
2021/04/04 03:30:07;;;;;;;11.27;3.75;;;8.20;72.50;;;;;;5052647;28;20201;-76
2021/04/04 03:32:36;;;;;;;9.18;3.33;;;8.10;72.60;;;;;;5052634;28;20169;-76
2021/04/04 03:35:06;;;;;;;11.43;4.25;;;8.20;72.80;;;;;;5052356;28;20215;-77
2021/04/04 03:37:33;;;;;;;7.65;3.60;;;8.20;72.90;;;;;;5052224;28;20266;-77
2021/04/04 03:39:58;;;;;;;8.18;3.63;;;8.10;72.90;;;;;;5052481;28;20169;-77
2021/04/04 03:42:26;;;;;;;7.10;3.43;;;8.10;73.00;;;;;;5052275;28;20169;-77
2021/04/04 03:44:57;;;;;;;10.30;4.82;;;8.10;73.30;;;;;;5035873;28;20205;-77
2021/04/04 03:47:23;;;;;;;8.23;3.97;;;8.10;73.60;;;;;;5035186;28;20177;-77
2021/04/04 03:49:49;;;;;;;15.07;5.45;;;8.10;73.60;;;;;;5053303;28;20165;-76
2021/04/04 03:52:16;;;;;;;8.13;3.63;;;8.10;74.00;;;;;;5052275;28;20234;-77
2021/04/04 03:54:43;;;;;;;8.85;4.32;;;8.10;74.00;;;;;;5035561;28;20274;-76
2021/04/04 03:57:10;;;;;;;9.55;4.13;;;8.10;74.10;;;;;;5053152;28;20180;-76
2021/04/04 03:59:39;;;;;;;9.10;3.10;;;8.10;74.30;;;;;;5052184;28;20649;-77
2021/04/04 04:02:07;;;;;;;6.80;2.90;;;8.10;74.40;;;;;;5039045;28;20181;-77
2021/04/04 04:04:33;;;;;;;12.38;4.10;;;8.10;74.80;;;;;;5053039;28;20738;-77
2021/04/04 04:07:00;;;;;;;8.65;3.70;;;8.10;74.70;;;;;;5052933;28;20161;-77
2021/04/04 04:09:27;;;;;;;7.20;4.82;;;8.10;74.70;;;;;;5053142;28;20169;-77
2021/04/04 04:11:54;;;;;;;9.52;3.72;;;8.10;75.10;;;;;;5053029;28;20161;-76
2021/04/04 04:14:22;;;;;;;9.63;3.92;;;8.10;75.20;;;;;;5051628;28;20189;-76
2021/04/04 04:16:48;;;;;;;8.80;3.97;;;8.00;75.10;;;;;;5034569;28;20706;-77
2021/04/04 04:19:16;;;;;;;8.30;3.20;;;8.00;75.10;;;;;;5035178;28;20546;-76
2021/04/04 04:21:41;;;;;;;7.65;3.50;;;8.00;75.20;;;;;;5051763;28;20256;-77
2021/04/04 04:24:11;;;;;;;8.00;2.77;;;8.00;75.30;;;;;;5052831;28;20292;-76
2021/04/04 04:26:42;;;;;;;8.63;3.20;;;8.00;75.40;;;;;;5051103;28;20594;-76
2021/04/04 04:29:14;;;;;;;11.30;2.67;;;8.00;75.60;;;;;;5051560;28;20537;-76
2021/04/04 04:31:43;;;;;;;12.48;4.32;;;8.00;75.70;;;;;;5052708;28;20169;-76
2021/04/04 04:34:11;;;;;;;8.27;3.75;;;8.00;75.80;;;;;;5051281;28;20199;-76
2021/04/04 04:36:38;;;;;;;7.35;2.75;;;8.00;75.70;;;;;;5051067;28;20181;-76
2021/04/04 04:39:06;;;;;;;13.70;3.10;;;8.00;75.70;;;;;;5056800;28;20230;-77
2021/04/04 04:41:34;;;;;;;7.20;2.83;;;8.00;75.90;;;;;;5051416;28;20212;-77
2021/04/04 04:44:03;;;;;;;7.68;3.25;;;8.00;76.10;;;;;;5051622;28;20189;-75
2021/04/04 04:46:30;;;;;;;7.30;3.20;;;8.00;76.30;;;;;;5052021;28;20347;-76
2021/04/04 04:48:56;;;;;;;10.70;3.33;;;8.00;76.20;;;;;;5019289;28;20165;-76
2021/04/04 04:51:23;;;;;;;9.93;3.17;;;8.00;76.30;;;;;;5036119;28;20172;-76
2021/04/04 04:53:50;;;;;;;11.50;3.10;;;8.10;76.50;;;;;;5052565;28;20193;-76
2021/04/04 04:56:17;;;;;;;12.80;3.28;;;8.10;76.70;;;;;;5070555;28;20173;-75
2021/04/04 04:58:44;;;;;;;8.70;3.35;;;8.10;77.60;;;;;;5074798;28;20150;-75
2021/04/04 05:01:18;;;;;;;13.07;3.25;;;8.10;76.80;;;;;;5075608;28;20173;-77
2021/04/04 05:03:44;;;;;;;6.00;2.85;;;8.10;77.00;;;;;;5058417;28;20175;-77
2021/04/04 05:06:11;;;;;;;7.05;3.55;;;8.10;76.80;;;;;;5074918;28;20216;-77
2021/04/04 05:08:41;;;;;;;10.95;3.63;;;8.10;77.00;;;;;;5074306;28;20153;-77
2021/04/04 05:11:09;;;;;;;10.82;3.55;;;8.20;77.30;;;;;;5058323;28;20185;-75
2021/04/04 05:13:39;;;;;;;10.38;4.57;;;8.20;77.20;;;;;;5051005;28;20182;-76
2021/04/04 05:16:12;;;;;;;6.22;3.10;;;8.20;77.40;;;;;;5056876;28;20633;-76
2021/04/04 05:18:48;;;;;;;9.77;3.35;;;8.20;77.60;;;;;;5051480;28;20173;-76
2021/04/04 05:21:26;;;;;;;6.05;2.42;;;8.20;77.70;;;;;;5035218;28;20195;-76
2021/04/04 05:23:58;;;;;;;7.03;3.40;;;8.20;77.50;;;;;;5035128;28;20234;-75
2021/04/04 05:26:43;;;;;;;8.73;3.72;;;8.20;77.70;;;;;;5035114;28;20207;-76
2021/04/04 05:29:12;;;;;;;7.20;3.95;;;8.20;77.90;;;;;;5050858;28;20226;-77
2021/04/04 05:31:48;;;;;;;7.45;2.97;;;8.20;77.70;;;;;;5051897;28;20169;-77
2021/04/04 05:34:16;;;;;;;5.30;3.30;;;8.30;78.00;;;;;;5050755;28;20226;-77
2021/04/04 05:36:58;;;;;;;7.88;3.00;;;8.20;77.70;;;;;;5033736;28;20238;-77
2021/04/04 05:39:28;;;;;;;7.75;3.70;;;8.30;78.20;;;;;;5051763;28;20532;-77
2021/04/04 05:41:56;;;;;;;8.52;3.72;;;8.30;78.20;;;;;;5050309;28;20303;-77
2021/04/04 05:44:40;;;;;;;9.85;3.22;;;8.30;78.20;;;;;;5050185;28;20564;-77
2021/04/04 05:47:26;;;;;;;11.85;3.95;;;8.30;78.50;;;;;;5050018;28;20165;-76
2021/04/04 05:50:10;;;;;;;11.50;3.72;;;8.30;78.40;;;;;;5051696;28;20298;-77
2021/04/04 05:52:44;;;;;;;8.05;3.55;;;8.30;78.40;;;;;;5056599;28;20168;-76
2021/04/04 05:55:29;;;;;;;11.77;3.75;;;8.30;78.30;;;;;;5051556;28;20188;-77
2021/04/04 05:58:07;;;;;;;8.68;2.95;;;8.30;78.50;;;;;;5033319;28;20577;-77
2021/04/04 06:00:36;;;;;;;6.90;2.58;;;8.40;78.70;;;;;;5051472;28;20177;-76
2021/04/04 06:03:11;;;;;;;9.98;3.92;;;8.40;78.50;;;;;;5051349;28;20179;-77
2021/04/04 06:06:14;;;;;;;7.70;3.20;;;8.40;79.10;;;;;;5051507;28;20256;-77
2021/04/04 06:09:13;;;;;;;11.88;3.20;;;8.40;78.80;;;;;;5049807;28;20181;-77
2021/04/04 06:12:17;;;;;;;13.25;3.08;;;8.40;78.70;;;;;;5049976;28;20264;-77
2021/04/04 06:15:07;;;;;;;9.50;2.88;;;8.40;79.20;;;;;;5050050;28;20185;-76
2021/04/04 06:18:05;;;;;;;6.57;2.47;;;8.50;79.10;;;;;;5051003;28;20184;-76
2021/04/04 06:20:43;;;;;;;8.98;3.33;;;8.50;78.90;;;;;;5050067;28;20176;-76
2021/04/04 06:23:09;;;;;;;5.97;3.45;;;8.50;78.90;;;;;;5049919;28;20183;-76
2021/04/04 06:26:15;;;;;;;6.40;3.28;;;8.50;79.20;;;;;;5052668;28;20204;-77
2021/04/04 06:28:50;;;;;;;9.05;3.58;;;8.50;79.90;;;;;;5048918;28;20177;-77
2021/04/04 06:31:44;;;;;;;5.18;2.60;;;8.60;79.60;;;;;;5055832;28;20168;-77
2021/04/04 06:34:27;;;;;;;8.45;3.30;;;8.60;79.80;;;;;;5084122;28;20222;-77
2021/04/04 06:37:11;;;;;;;14.35;4.72;;;8.60;80.10;;;;;;5044899;28;20176;-77
2021/04/04 06:39:43;;;;;;;11.70;3.67;;;8.60;79.80;;;;;;5050237;28;20586;-77
2021/04/04 06:42:19;;;;;;;5.32;2.95;;;8.60;80.00;;;;;;5052085;28;20544;-77
2021/04/04 06:45:03;;;;;;;7.03;3.80;;;8.70;80.30;;;;;;5029691;28;20223;-77
2021/04/04 06:47:50;;;;;;;10.43;3.90;;;8.70;80.40;;;;;;5047352;28;20199;-77
2021/04/04 06:50:20;;;;;;;10.35;3.60;;;8.70;80.60;;;;;;5052003;28;20640;-77
2021/04/04 06:53:07;;;;;;;11.90;3.22;;;8.80;80.40;;;;;;5015968;28;20170;-77
2021/04/04 06:55:39;;;;;;;8.65;3.55;;;8.80;80.60;;;;;;5037538;28;20175;-77
2021/04/04 06:58:31;;;;;;;11.85;3.53;;;8.90;80.60;;;;;;5046749;28;20177;-77
2021/04/04 07:01:37;;;;;;;7.85;2.17;;;8.90;80.50;;;;;;5050128;28;20173;-76
2021/04/04 07:04:23;;;;;;;10.25;3.25;;;9.00;80.40;;;;;;5064282;28;20181;-77
2021/04/04 07:07:11;;;;;;;7.13;3.50;;;9.00;80.40;;;;;;5052964;28;20222;-77
2021/04/04 07:09:54;;;;;;;5.68;3.30;;;9.00;80.30;;;;;;5043901;28;20197;-76
2021/04/04 07:12:57;;;;;;;8.32;3.55;;;9.10;80.10;;;;;;5043328;28;20184;-77
2021/04/04 07:16:06;;;;;;;7.43;3.67;;;9.10;80.00;;;;;;5050605;28;20570;-76
2021/04/04 07:19:09;;;;;;;10.25;3.03;;;9.20;79.90;;;;;;5013619;28;20513;-76
2021/04/04 07:21:53;;;;;;;7.80;3.40;;;9.20;79.70;;;;;;5051723;28;20165;-76
2021/04/04 07:24:48;;;;;;;9.90;2.88;;;9.30;79.70;;;;;;5051741;28;20197;-76
2021/04/04 07:27:25;;;;;;;9.18;3.72;;;9.30;79.70;;;;;;5049246;28;20209;-76
2021/04/04 07:30:03;;;;;;;5.85;2.78;;;9.30;79.70;;;;;;5050486;28;20165;-77
2021/04/04 07:32:44;;;;;;;8.90;4.38;;;9.30;79.70;;;;;;5049091;28;20178;-76
2021/04/04 07:35:18;;;;;;;6.88;4.40;;;9.30;79.70;;;;;;5032537;28;20186;-76
2021/04/04 07:37:52;;;;;;;11.55;3.65;;;9.30;79.60;;;;;;5031458;28;20180;-76
2021/04/04 07:40:59;;;;;;;10.65;3.22;;;9.40;79.80;;;;;;5033857;28;20169;-77
2021/04/04 07:43:33;;;;;;;12.57;3.20;;;9.40;80.00;;;;;;5023217;28;20205;-77
2021/04/04 07:46:21;;;;;;;7.43;2.92;;;9.50;79.90;;;;;;5016050;28;20233;-77
2021/04/04 07:49:04;;;;;;;6.70;2.78;;;9.60;80.00;;;;;;5033488;28;20174;-77
2021/04/04 07:51:35;;;;;;;11.43;4.80;;;9.60;79.90;;;;;;5024596;28;20165;-75
2021/04/04 07:54:35;;;;;;;9.68;4.20;;;9.70;79.50;;;;;;5032023;28;20185;-77
2021/04/04 07:57:13;;;;;;;14.50;4.95;;;9.70;79.10;;;;;;5048471;28;20558;-77
2021/04/04 07:59:44;;;;;;;9.35;4.55;;;9.70;78.80;;;;;;5035684;28;20287;-77
2021/04/04 08:02:10;;;;;;;8.38;3.33;;;9.80;78.70;;;;;;5048876;28;20714;-77
2021/04/04 08:04:42;;;;;;;8.53;3.33;;;9.80;78.70;;;;;;5045118;28;20185;-77
2021/04/04 08:07:15;;;;;;;11.95;5.13;;;9.80;78.80;;;;;;5017564;28;21070;-77
2021/04/04 08:10:00;;;;;;;11.27;4.07;;;9.80;80.20;;;;;;5034877;28;20173;-76
2021/04/04 08:12:34;;;;;;;7.90;3.40;;;9.80;78.80;;;;;;4999457;28;20231;-77
2021/04/04 08:15:07;;;;;;;8.10;3.92;;;9.90;78.50;;;;;;5031841;28;20197;-76
2021/04/04 08:17:38;;;;;;;10.65;3.88;;;9.90;78.50;;;;;;5032749;28;20177;-78
2021/04/04 08:20:13;;;;;;;9.20;4.47;;;10.00;77.30;;;;;;5069947;28;20184;-76
2021/04/04 08:22:43;;;;;;;5.72;3.65;;;10.10;77.20;;;;;;5037123;28;20176;-77
2021/04/04 08:25:16;;;;;;;10.35;5.93;;;10.20;77.20;;;;;;5051300;28;20255;-77
2021/04/04 08:27:45;;;;;;;12.93;5.40;;;10.20;76.40;;;;;;5050880;28;20176;-76
2021/04/04 08:30:26;;;;;;;9.40;4.45;;;10.30;76.00;;;;;;5051400;28;20157;-77
2021/04/04 08:33:01;;;;;;;9.02;4.45;;;10.30;75.50;;;;;;5051478;28;20165;-77
2021/04/04 08:35:49;;;;;;;9.45;4.10;;;10.30;74.90;;;;;;5051211;28;20192;-76
2021/04/04 08:38:34;;;;;;;9.98;4.50;;;10.30;74.80;;;;;;5017823;28;20199;-76
2021/04/04 08:41:01;;;;;;;13.60;5.13;;;10.40;74.20;;;;;;5051448;28;20725;-77
2021/04/04 08:43:27;;;;;;;13.65;7.97;;;10.40;74.30;;;;;;5051258;28;20224;-77
2021/04/04 08:46:00;;;;;;;17.27;10.27;;;10.50;74.30;;;;;;5018205;28;20205;-76
2021/04/04 08:48:30;;;;;;;11.90;8.32;;;10.50;73.50;;;;;;5031651;28;20595;-77
2021/04/04 08:51:03;;;;;;;14.88;10.25;;;10.50;73.30;;;;;;5078749;28;20177;-76
2021/04/04 08:53:34;;;;;;;18.02;13.20;;;10.50;72.70;;;;;;5054686;28;20197;-76
2021/04/04 08:56:01;;;;;;;17.43;12.20;;;10.50;72.10;;;;;;5039196;28;20754;-76
2021/04/04 08:58:33;;;;;;;13.10;9.25;;;10.40;71.80;;;;;;5021023;28;20583;-77
2021/04/04 09:01:34;;;;;;;9.77;6.07;;;10.40;72.00;;;;;;5032971;28;20170;-76
2021/04/04 09:04:04;;;;;;;16.30;8.25;;;10.40;72.00;;;;;;5032878;28;20196;-77
2021/04/04 09:06:39;;;;;;;14.07;9.55;;;10.40;71.70;;;;;;5050797;28;20212;-77
2021/04/04 09:09:21;;;;;;;12.27;8.55;;;10.40;71.50;;;;;;5040283;28;20191;-76
2021/04/04 09:11:49;;;;;;;14.45;10.32;;;10.40;71.30;;;;;;5070303;28;20165;-76
2021/04/04 09:14:23;;;;;;;14.70;9.85;;;10.40;71.20;;;;;;5036449;28;20191;-76
2021/04/04 09:16:57;;;;;;;17.27;10.55;;;10.40;71.20;;;;;;5084278;28;20173;-74
2021/04/04 09:19:34;;;;;;;15.88;9.38;;;10.40;71.30;;;;;;5070188;28;20179;-75
2021/04/04 09:22:19;;;;;;;15.45;8.50;;;10.40;71.40;;;;;;5036431;28;20200;-76
2021/04/04 09:25:12;;;;;;;12.05;8.07;;;10.40;71.40;;;;;;5065535;28;20229;-75
2021/04/04 09:27:52;;;;;;;11.43;6.50;;;10.40;71.40;;;;;;5024938;28;20245;-76
2021/04/04 09:30:35;;;;;;;11.18;6.00;;;10.40;71.60;;;;;;5036135;28;20177;-76
2021/04/04 09:33:08;;;;;;;10.75;7.03;;;10.40;71.80;;;;;;5065266;28;20532;-75
2021/04/04 09:35:36;;;;;;;10.48;6.35;;;10.50;71.90;;;;;;5055572;28;20168;-77
2021/04/04 09:38:11;;;;;;;9.52;6.85;;;10.50;71.70;;;;;;5068010;28;20212;-77
2021/04/04 09:40:39;;;;;;;7.88;5.38;;;10.50;71.60;;;;;;5053514;28;20195;-79
2021/04/04 09:43:16;;;;;;;8.93;4.15;;;10.50;71.60;;;;;;5053152;28;20169;-78
2021/04/04 09:45:43;;;;;;;7.82;3.42;;;10.50;71.40;;;;;;5085484;28;20546;-78
2021/04/04 09:48:24;;;;;;;5.93;2.80;;;10.50;71.40;;;;;;5084311;28;20173;-79
2021/04/04 09:51:08;;;;;;;8.52;4.95;;;10.50;71.60;;;;;;5040677;28;20184;-79
2021/04/04 09:53:39;;;;;;;8.57;5.15;;;10.40;71.60;;;;;;5050910;28;20656;-78
2021/04/04 09:56:13;;;;;;;7.80;4.50;;;10.40;72.30;;;;;;5052799;28;20193;-77
2021/04/04 09:58:41;;;;;;;12.93;6.57;;;10.40;71.70;;;;;;5051806;28;20177;-78
2021/04/04 10:01:17;;;;;;;8.60;6.15;;;10.40;71.80;;;;;;5037635;28;20188;-77
2021/04/04 10:04:00;;;;;;;11.82;6.93;;;10.40;72.00;;;;;;5055521;28;20613;-79
2021/04/04 10:06:26;;;;;;;15.02;8.02;;;10.40;72.00;;;;;;5055081;28;20196;-79
2021/04/04 10:08:58;;;;;;;10.15;6.15;;;10.40;72.10;;;;;;5037572;28;20203;-79
2021/04/04 10:11:26;;;;;;;13.88;7.22;;;10.40;72.10;;;;;;5058380;28;20185;-79
2021/04/04 10:14:08;;;;;;;10.55;8.20;;;10.40;72.20;;;;;;5056441;28;20219;-78
2021/04/04 10:16:34;;;;;;;14.60;7.68;;;10.50;72.40;;;;;;5055124;28;20164;-78
2021/04/04 10:19:09;;;;;;;15.65;9.15;;;10.40;72.20;;;;;;5054334;28;20644;-78
2021/04/04 10:21:37;;;;;;;9.95;6.90;;;10.50;72.30;;;;;;5055084;28;20172;-78
2021/04/04 10:24:27;;;;;;;9.63;7.80;;;10.50;72.20;;;;;;5070044;28;20219;-80
2021/04/04 10:27:25;;;;;;;8.63;5.53;;;10.50;72.50;;;;;;5053505;28;20234;-81
2021/04/04 10:30:17;;;;;;;6.10;5.00;;;10.50;72.40;;;;;;5052924;28;20206;-81
2021/04/04 10:32:45;;;;;;;5.97;4.10;;;10.50;72.40;;;;;;5086899;28;20184;-80
2021/04/04 10:35:13;;;;;;;6.18;4.40;;;10.60;72.60;;;;;;5054468;28;20230;-78
2021/04/04 10:37:39;;;;;;;7.03;4.20;;;10.60;72.70;;;;;;5069150;28;20246;-79
2021/04/04 10:40:09;;;;;;;5.70;3.67;;;10.70;72.90;;;;;;5052778;28;20179;-80
2021/04/04 10:42:36;;;;;;;6.57;3.92;;;10.80;72.90;;;;;;5052720;28;20192;-82
2021/04/04 10:45:19;;;;;;;3.10;2.75;;;10.80;72.70;;;;;;5054281;28;20189;-80
2021/04/04 10:47:45;;;;;;;7.70;1.98;;;10.90;72.60;;;;;;5035557;28;20540;-80
2021/04/04 10:50:13;;;;;;;8.60;2.00;;;10.90;72.70;;;;;;5055787;28;20171;-80
2021/04/04 10:52:41;;;;;;;3.40;2.08;;;11.00;72.70;;;;;;5052722;28;20260;-80
2021/04/04 10:55:08;;;;;;;3.28;2.13;;;11.10;72.80;;;;;;5052993;28;20555;-80
2021/04/04 10:57:35;;;;;;;4.35;2.45;;;11.10;72.70;;;;;;5053208;28;20169;-81
2021/04/04 11:00:07;;;;;;;5.05;2.97;;;11.20;72.90;;;;;;5054053;28;20201;-82
2021/04/04 11:02:39;;;;;;;5.07;2.60;;;11.30;72.80;;;;;;5052699;28;20181;-81
2021/04/04 11:05:23;;;;;;;7.10;3.70;;;11.40;72.80;;;;;;5034032;28;20347;-80
2021/04/04 11:07:50;;;;;;;6.53;3.90;;;11.50;72.50;;;;;;5032307;28;20189;-81
2021/04/04 11:10:16;;;;;;;4.85;2.90;;;11.50;72.10;;;;;;5033948;28;20168;-81
2021/04/04 11:12:42;;;;;;;4.57;2.90;;;11.50;71.70;;;;;;5031906;28;20260;-80
2021/04/04 11:15:13;;;;;;;6.37;3.07;;;11.50;71.60;;;;;;5032803;28;20201;-80
2021/04/04 11:17:41;;;;;;;6.20;2.70;;;11.50;71.20;;;;;;5015819;28;20169;-80
2021/04/04 11:20:09;;;;;;;7.32;2.50;;;11.50;71.20;;;;;;5032906;28;20169;-80
2021/04/04 11:22:36;;;;;;;9.90;3.58;;;11.60;71.10;;;;;;5050569;28;20177;-80
2021/04/04 11:25:05;;;;;;;3.97;2.45;;;11.50;70.70;;;;;;5053094;28;20201;-80
2021/04/04 11:27:36;;;;;;;7.82;3.20;;;11.50;70.70;;;;;;5036281;28;20587;-80
2021/04/04 11:30:04;;;;;;;6.22;3.22;;;11.50;70.40;;;;;;5052246;28;20173;-80
2021/04/04 11:32:29;;;;;;;6.57;2.50;;;11.50;70.60;;;;;;5037085;28;20165;-80
2021/04/04 11:34:59;;;;;;;4.93;3.10;;;11.50;70.80;;;;;;5052228;28;20189;-80
2021/04/04 11:37:28;;;;;;;4.25;2.55;;;11.50;70.90;;;;;;5035241;28;20935;-80
2021/04/04 11:40:16;;;;;;;3.38;1.92;;;11.50;70.70;;;;;;5052195;28;20219;-80
2021/04/04 11:42:42;;;;;;;5.72;2.75;;;11.50;70.80;;;;;;5052019;28;20203;-82
2021/04/04 11:45:09;;;;;;;2.97;2.05;;;11.60;71.00;;;;;;5053030;28;20689;-80
2021/04/04 11:47:35;;;;;;;6.18;3.00;;;11.60;71.20;;;;;;5052043;28;20165;-81
2021/04/04 11:50:24;;;;;;;5.28;2.75;;;11.60;70.90;;;;;;5051485;28;20216;-80
2021/04/04 11:52:52;;;;;;;5.32;2.85;;;11.70;70.80;;;;;;5035563;28;20536;-82
2021/04/04 11:55:20;;;;;;;7.30;4.18;;;11.80;71.10;;;;;;5051799;28;20207;-84
2021/04/04 11:57:47;;;;;;;4.80;3.25;;;11.80;71.10;;;;;;5051403;28;20165;-81
2021/04/04 12:00:18;;;;;;;4.65;3.30;;;11.90;71.00;;;;;;5052449;28;20706;-81
2021/04/04 12:03:02;;;;;;;6.75;2.50;;;11.90;70.70;;;;;;5052829;28;20169;-81
2021/04/04 12:05:33;;;;;;;5.95;2.30;;;11.90;70.80;;;;;;5084913;28;20287;-83
2021/04/04 12:07:59;;;;;;;5.47;2.78;;;12.00;71.00;;;;;;5052594;28;20172;-82
2021/04/04 12:10:28;;;;;;;5.10;2.53;;;12.10;71.00;;;;;;5034664;28;20161;-82
2021/04/04 12:12:54;;;;;;;3.55;2.60;;;12.10;70.70;;;;;;5051779;28;20619;-82
2021/04/04 12:15:25;;;;;;;6.07;2.80;;;12.10;70.70;;;;;;5052606;28;20192;-82
2021/04/04 12:17:54;;;;;;;6.05;2.63;;;12.10;70.50;;;;;;5051660;28;20177;-81
2021/04/04 12:20:23;;;;;;;6.07;3.00;;;12.20;70.70;;;;;;5052462;28;20223;-81
2021/04/04 12:22:49;;;;;;;4.38;2.75;;;12.20;70.60;;;;;;5052396;28;20528;-81
2021/04/04 12:25:23;;;;;;;3.80;2.55;;;12.30;70.70;;;;;;5051115;28;20204;-81
2021/04/04 12:27:52;;;;;;;6.47;3.03;;;12.30;70.20;;;;;;5038708;28;20224;-81
2021/04/04 12:30:23;;;;;;;5.70;2.50;;;12.40;70.40;;;;;;5049838;28;20631;-81
2021/04/04 12:32:58;;;;;;;6.53;3.00;;;12.40;70.20;;;;;;5051172;28;20173;-82
2021/04/04 12:35:24;;;;;;;9.75;4.03;;;12.40;70.10;;;;;;5051570;28;20288;-81
2021/04/04 12:37:50;;;;;;;6.90;4.43;;;12.40;69.90;;;;;;5050550;28;20260;-82
2021/04/04 12:40:16;;;;;;;5.30;3.90;;;12.40;69.70;;;;;;5055894;28;20169;-81
2021/04/04 12:42:42;;;;;;;5.57;4.07;;;12.50;69.90;;;;;;5034301;28;20215;-82
2021/04/04 12:45:09;;;;;;;5.18;2.55;;;12.50;69.90;;;;;;5051743;28;20619;-82
2021/04/04 12:47:38;;;;;;;6.20;3.65;;;12.50;69.90;;;;;;5050593;28;20169;-81
2021/04/04 12:50:13;;;;;;;5.13;3.75;;;12.50;69.70;;;;;;5050995;28;20264;-81
2021/04/04 12:52:43;;;;;;;5.35;3.58;;;12.50;69.40;;;;;;5034085;28;20223;-81
2021/04/04 12:55:23;;;;;;;5.30;3.25;;;12.50;69.20;;;;;;5050518;28;20196;-81
2021/04/04 12:57:55;;;;;;;3.95;3.30;;;12.50;69.60;;;;;;5050502;28;20176;-81
2021/04/04 13:00:29;;;;;;;5.68;3.78;;;12.60;69.50;;;;;;5051849;28;20269;-81
2021/04/04 13:03:19;;;;;;;6.43;3.78;;;12.60;69.50;;;;;;5050885;28;20172;-82
2021/04/04 13:05:47;;;;;;;6.32;4.13;;;12.60;69.60;;;;;;5050622;28;20246;-80
2021/04/04 13:08:26;;;;;;;8.25;3.80;;;12.70;69.80;;;;;;5050011;28;20648;-81
2021/04/04 13:11:04;;;;;;;5.40;3.30;;;12.80;69.80;;;;;;5050645;28;20548;-82
2021/04/04 13:13:32;;;;;;;8.45;4.35;;;12.80;69.50;;;;;;5052012;28;20177;-82
2021/04/04 13:16:06;;;;;;;7.25;4.03;;;12.80;69.40;;;;;;5034500;28;20568;-82
2021/04/04 13:18:48;;;;;;;8.50;4.25;;;12.80;69.40;;;;;;5037241;28;20168;-81
2021/04/04 13:21:14;;;;;;;4.28;3.33;;;12.80;68.90;;;;;;5050418;28;20169;-82